Time;durP1;ratioP1;P1;durP2;ratioP2;P2;SDS_P1;SDS_P2;PMS_P1;PMS_P2;Temp;Humidity;BMP_temperature;BMP_pressure;BME280_temperature;BME280_humidity;BME280_pressure;Samples;Min_cycle;Max_cycle;Signal;HPM_P1;HPM_P2
2021/11/19 00:01:22;;;;;;;53.83;10.60;;;1.60;99.90;;;;;;5026542;28;20770;-57
2021/11/19 00:03:48;;;;;;;54.47;11.10;;;1.60;99.90;;;;;;5041127;28;20206;-59
2021/11/19 00:06:15;;;;;;;79.07;12.27;;;1.60;99.90;;;;;;5049074;28;20400;-61
2021/11/19 00:08:41;;;;;;;142.37;13.90;;;1.60;99.90;;;;;;5055751;28;20482;-61
2021/11/19 00:11:10;;;;;;;119.93;13.00;;;1.70;99.90;;;;;;5051803;28;20449;-60
2021/11/19 00:13:36;;;;;;;61.87;10.63;;;1.70;99.90;;;;;;5033486;28;21005;-61
2021/11/19 00:16:01;;;;;;;32.63;9.97;;;1.70;99.90;;;;;;5032414;28;20483;-59
2021/11/19 00:18:28;;;;;;;37.77;10.43;;;1.70;99.90;;;;;;5013794;28;20508;-58
2021/11/19 00:20:54;;;;;;;74.97;11.20;;;1.70;99.90;;;;;;5022406;28;20759;-60
2021/11/19 00:23:20;;;;;;;118.23;12.90;;;1.70;99.90;;;;;;5035132;28;21022;-59
2021/11/19 00:25:47;;;;;;;86.77;11.17;;;1.70;99.90;;;;;;5031348;28;20786;-58
2021/11/19 00:28:14;;;;;;;177.33;15.00;;;1.70;99.90;;;;;;5030216;28;20415;-58
2021/11/19 00:30:40;;;;;;;132.10;12.17;;;1.70;99.90;;;;;;5033881;28;20531;-58
2021/11/19 00:33:08;;;;;;;114.20;12.33;;;1.80;99.90;;;;;;5024792;28;20469;-59
2021/11/19 00:35:35;;;;;;;63.90;10.73;;;1.70;99.90;;;;;;5030173;28;20520;-58
2021/11/19 00:38:02;;;;;;;92.33;11.70;;;1.70;99.90;;;;;;5029368;28;20428;-58
2021/11/19 00:40:31;;;;;;;166.53;13.20;;;1.80;99.90;;;;;;5029573;28;20445;-57
2021/11/19 00:42:57;;;;;;;45.43;10.33;;;1.80;99.90;;;;;;5033406;28;20511;-58
2021/11/19 00:45:24;;;;;;;88.60;12.93;;;1.70;99.90;;;;;;5033716;28;20438;-60
2021/11/19 00:47:52;;;;;;;71.53;11.37;;;1.80;99.90;;;;;;5029057;28;20180;-57
2021/11/19 00:50:21;;;;;;;57.73;10.60;;;1.80;99.90;;;;;;5028110;28;20513;-57
2021/11/19 00:52:46;;;;;;;89.70;12.50;;;1.80;99.90;;;;;;5021196;28;20458;-58
2021/11/19 00:55:12;;;;;;;72.70;11.63;;;1.80;99.90;;;;;;5030891;28;20433;-56
2021/11/19 00:57:38;;;;;;;92.77;11.87;;;1.80;99.90;;;;;;5025483;28;20245;-58
2021/11/19 01:00:11;;;;;;;51.57;10.00;;;1.80;99.90;;;;;;5025967;28;20429;-56
2021/11/19 01:02:36;;;;;;;97.27;12.70;;;1.80;99.90;;;;;;5023985;28;20517;-56
2021/11/19 01:05:03;;;;;;;88.57;11.83;;;1.80;99.90;;;;;;5032614;28;20511;-58
2021/11/19 01:07:29;;;;;;;66.13;11.37;;;1.80;99.90;;;;;;5029372;28;20179;-57
2021/11/19 01:09:59;;;;;;;81.07;10.60;;;1.80;99.90;;;;;;5019368;28;20820;-59
2021/11/19 01:12:29;;;;;;;38.27;9.67;;;1.80;99.90;;;;;;5052521;28;20468;-59
2021/11/19 01:15:12;;;;;;;70.03;10.60;;;1.80;99.90;;;;;;5049674;28;20425;-58
2021/11/19 01:17:51;;;;;;;65.00;9.00;;;1.80;99.90;;;;;;5046905;28;20410;-58
2021/11/19 01:20:27;;;;;;;108.23;10.93;;;1.70;99.90;;;;;;5044115;28;20424;-63
2021/11/19 01:22:55;;;;;;;49.87;9.83;;;1.70;99.90;;;;;;5037142;28;20470;-62
2021/11/19 01:25:27;;;;;;;100.00;10.70;;;1.60;99.90;;;;;;5046997;28;20461;-62
2021/11/19 01:27:53;;;;;;;72.00;10.90;;;1.60;99.90;;;;;;5057288;28;20429;-61
2021/11/19 01:30:26;;;;;;;84.10;10.10;;;1.60;99.90;;;;;;5051338;28;20417;-59
2021/11/19 01:32:52;;;;;;;119.77;11.67;;;1.60;99.90;;;;;;5045624;28;20463;-59
2021/11/19 01:35:18;;;;;;;106.77;12.73;;;1.50;99.90;;;;;;5041036;28;20491;-59
2021/11/19 01:37:44;;;;;;;133.23;13.37;;;1.60;99.90;;;;;;5049361;28;20425;-59
2021/11/19 01:40:13;;;;;;;274.00;19.50;;;1.50;99.90;;;;;;5046164;28;20203;-59
2021/11/19 01:42:48;;;;;;;137.80;14.90;;;1.50;99.90;;;;;;5049937;28;20484;-59
2021/11/19 01:45:22;;;;;;;133.87;17.03;;;1.40;99.90;;;;;;5047525;28;20432;-62
2021/11/19 01:47:51;;;;;;;108.23;17.30;;;1.40;99.90;;;;;;5035238;28;20502;-60
2021/11/19 01:50:26;;;;;;;166.10;16.57;;;1.40;99.90;;;;;;5034921;28;20429;-60
2021/11/19 01:53:20;;;;;;;119.43;14.43;;;1.30;99.90;;;;;;5032210;28;20458;-57
2021/11/19 01:55:55;;;;;;;54.57;13.73;;;1.30;99.90;;;;;;5018126;28;20425;-60
2021/11/19 01:58:35;;;;;;;39.60;13.03;;;1.40;99.90;;;;;;5033437;28;20463;-58
2021/11/19 02:01:07;;;;;;;66.33;13.10;;;1.40;99.90;;;;;;5024370;28;20421;-59
2021/11/19 02:03:37;;;;;;;93.73;13.63;;;1.40;99.90;;;;;;5016811;28;20529;-58
2021/11/19 02:06:25;;;;;;;58.00;12.10;;;1.40;99.90;;;;;;5029980;28;20424;-58
2021/11/19 02:08:51;;;;;;;37.60;14.07;;;1.40;99.90;;;;;;5017998;28;20429;-57
2021/11/19 02:11:46;;;;;;;39.70;13.30;;;1.40;99.90;;;;;;5029220;28;20472;-58
2021/11/19 02:14:22;;;;;;;42.03;12.50;;;1.40;99.90;;;;;;5027866;28;20426;-57
2021/11/19 02:16:59;;;;;;;139.17;15.17;;;1.40;99.90;;;;;;5024476;28;20432;-58
2021/11/19 02:19:33;;;;;;;73.10;12.80;;;1.40;99.90;;;;;;5025055;28;20515;-57
2021/11/19 02:22:42;;;;;;;38.03;11.37;;;1.30;99.90;;;;;;5034626;28;20485;-60
2021/11/19 02:25:26;;;;;;;63.07;11.27;;;1.30;99.90;;;;;;4972969;28;20447;-58
2021/11/19 02:27:59;;;;;;;58.97;12.17;;;1.40;99.90;;;;;;4966156;28;20436;-58
2021/11/19 02:30:57;;;;;;;49.73;10.80;;;1.40;99.90;;;;;;5006641;28;20419;-58
2021/11/19 02:33:25;;;;;;;37.10;10.37;;;1.30;99.90;;;;;;5018310;28;20450;-58
2021/11/19 02:36:09;;;;;;;52.90;10.80;;;1.30;99.90;;;;;;5028254;28;20516;-57
2021/11/19 02:38:38;;;;;;;123.73;12.90;;;1.30;99.90;;;;;;5023253;28;20456;-59
2021/11/19 02:41:05;;;;;;;56.60;10.80;;;1.30;99.90;;;;;;5020421;28;20446;-57
2021/11/19 02:43:34;;;;;;;36.43;9.77;;;1.30;99.90;;;;;;5016950;28;20604;-54
2021/11/19 02:46:00;;;;;;;63.87;10.30;;;1.30;99.90;;;;;;5023182;28;20432;-59
2021/11/19 02:48:29;;;;;;;45.70;10.90;;;1.30;99.90;;;;;;5023347;28;20429;-58
2021/11/19 02:50:57;;;;;;;41.10;10.17;;;1.30;99.90;;;;;;5028610;28;20432;-58
2021/11/19 02:53:24;;;;;;;32.57;10.30;;;1.30;99.90;;;;;;5024911;28;20555;-57
2021/11/19 02:55:52;;;;;;;40.97;10.80;;;1.30;99.90;;;;;;5027485;28;20473;-58
2021/11/19 02:58:30;;;;;;;97.50;12.30;;;1.30;99.90;;;;;;5014307;28;20430;-59
2021/11/19 03:00:59;;;;;;;60.57;10.60;;;1.30;99.90;;;;;;5025094;28;20476;-59
2021/11/19 03:03:25;;;;;;;21.93;9.97;;;1.30;99.90;;;;;;5033761;23;20585;-61
2021/11/19 03:05:51;;;;;;;68.43;8.87;;;1.30;99.90;;;;;;5026469;28;20425;-59
2021/11/19 03:08:17;;;;;;;13.87;8.50;;;1.20;99.90;;;;;;5033624;28;20414;-61
2021/11/19 03:10:48;;;;;;;46.17;10.00;;;1.30;99.90;;;;;;5025439;28;20178;-59
2021/11/19 03:13:15;;;;;;;54.07;10.27;;;1.30;99.90;;;;;;5018297;28;20568;-61
2021/11/19 03:15:45;;;;;;;51.67;10.63;;;1.30;99.90;;;;;;5004813;28;20430;-61
2021/11/19 03:18:15;;;;;;;59.43;10.13;;;1.30;99.90;;;;;;5005507;28;20445;-61
2021/11/19 03:20:43;;;;;;;89.43;9.83;;;1.30;99.90;;;;;;5003490;28;20722;-61
2021/11/19 03:23:09;;;;;;;45.43;9.23;;;1.30;99.90;;;;;;5003496;28;20476;-62
2021/11/19 03:25:38;;;;;;;34.97;10.60;;;1.20;99.90;;;;;;5006031;28;20430;-62
2021/11/19 03:28:06;;;;;;;45.77;10.77;;;1.30;99.90;;;;;;5006013;28;20855;-60
2021/11/19 03:30:33;;;;;;;35.17;8.70;;;1.30;99.90;;;;;;5009162;28;20473;-61
2021/11/19 03:32:59;;;;;;;76.10;10.50;;;1.30;99.90;;;;;;5013601;28;20456;-61
2021/11/19 03:35:27;;;;;;;27.13;8.70;;;1.30;99.90;;;;;;5004504;28;20424;-62
2021/11/19 03:37:54;;;;;;;64.30;10.83;;;1.30;99.90;;;;;;5004622;28;20447;-61
2021/11/19 03:40:28;;;;;;;24.23;9.10;;;1.30;99.90;;;;;;5006092;28;20428;-62
2021/11/19 03:42:55;;;;;;;50.70;10.00;;;1.20;99.90;;;;;;5003456;28;20982;-61
2021/11/19 03:45:25;;;;;;;136.53;12.00;;;1.20;99.90;;;;;;5007958;28;20422;-61
2021/11/19 03:47:53;;;;;;;99.40;11.97;;;1.20;99.90;;;;;;5014486;28;20828;-61
2021/11/19 03:50:26;;;;;;;60.53;9.90;;;1.20;99.90;;;;;;5016104;28;20430;-62
2021/11/19 03:52:52;;;;;;;47.47;10.77;;;1.20;99.90;;;;;;5014835;28;20444;-63
2021/11/19 03:55:23;;;;;;;23.93;11.30;;;1.10;99.90;;;;;;5015540;28;20841;-63
2021/11/19 03:57:49;;;;;;;56.10;10.90;;;1.20;99.90;;;;;;5016450;28;20497;-61
2021/11/19 04:00:19;;;;;;;110.40;10.77;;;1.20;99.90;;;;;;5027235;28;20529;-60
2021/11/19 04:02:46;;;;;;;35.93;8.37;;;1.20;99.90;;;;;;5003576;28;20740;-61
2021/11/19 04:05:12;;;;;;;91.80;10.50;;;1.10;99.90;;;;;;5013274;28;20434;-60
2021/11/19 04:07:37;;;;;;;43.03;10.10;;;1.10;99.90;;;;;;5009329;28;20524;-61
2021/11/19 04:10:08;;;;;;;43.37;10.60;;;1.10;99.90;;;;;;5004876;28;20169;-59
2021/11/19 04:12:33;;;;;;;76.97;10.70;;;1.00;99.90;;;;;;5010717;28;20203;-61
2021/11/19 04:15:00;;;;;;;56.73;11.73;;;1.00;99.90;;;;;;5010126;28;20436;-60
2021/11/19 04:17:26;;;;;;;39.80;10.20;;;1.00;99.90;;;;;;5010412;28;20244;-60
2021/11/19 04:19:51;;;;;;;92.13;10.90;;;1.00;99.90;;;;;;5010666;28;20427;-60
2021/11/19 04:22:19;;;;;;;301.37;16.70;;;1.00;99.90;;;;;;5015783;28;20680;-61
2021/11/19 04:24:54;;;;;;;83.43;11.33;;;1.00;99.90;;;;;;5008922;28;20175;-58
2021/11/19 04:27:21;;;;;;;140.90;12.10;;;1.00;99.90;;;;;;5011837;28;20451;-60
2021/11/19 04:29:47;;;;;;;92.13;14.10;;;0.90;99.90;;;;;;5009191;28;20438;-59
2021/11/19 04:32:15;;;;;;;110.07;12.47;;;0.90;99.90;;;;;;5009626;28;20534;-59
2021/11/19 04:34:41;;;;;;;206.30;14.43;;;0.90;99.90;;;;;;5003011;28;20500;-60
2021/11/19 04:37:07;;;;;;;139.47;12.10;;;0.80;99.90;;;;;;5009347;28;20433;-60
2021/11/19 04:39:33;;;;;;;176.17;15.53;;;0.80;99.90;;;;;;5008265;28;20433;-60
2021/11/19 04:42:00;;;;;;;80.03;11.83;;;0.80;99.90;;;;;;5009112;28;20185;-58
2021/11/19 04:44:27;;;;;;;137.00;14.63;;;0.80;99.90;;;;;;5006619;28;20513;-60
2021/11/19 04:46:52;;;;;;;64.00;12.60;;;0.80;99.90;;;;;;5007771;28;20437;-61
2021/11/19 04:49:18;;;;;;;63.33;12.80;;;0.80;99.90;;;;;;5010125;28;20435;-61
2021/11/19 04:51:46;;;;;;;117.97;14.97;;;0.80;99.90;;;;;;5008492;28;20206;-60
2021/11/19 04:54:13;;;;;;;127.50;13.53;;;0.80;99.90;;;;;;5006287;28;20209;-59
2021/11/19 04:56:41;;;;;;;73.23;13.10;;;0.80;99.90;;;;;;5001952;28;20437;-61
2021/11/19 04:59:09;;;;;;;65.63;12.27;;;0.70;99.90;;;;;;5001587;28;20462;-61
2021/11/19 05:01:40;;;;;;;64.07;15.50;;;0.70;99.90;;;;;;5002684;28;20578;-58
2021/11/19 05:04:07;;;;;;;97.80;17.63;;;0.70;99.90;;;;;;5004478;28;20485;-58
2021/11/19 05:06:33;;;;;;;153.17;18.20;;;0.70;99.90;;;;;;5008488;28;20430;-60
2021/11/19 05:08:59;;;;;;;178.20;20.93;;;0.70;99.90;;;;;;5003332;28;20494;-57
2021/11/19 05:11:31;;;;;;;107.00;16.97;;;0.70;99.90;;;;;;4995404;28;20915;-59
2021/11/19 05:13:58;;;;;;;65.87;14.37;;;0.70;99.90;;;;;;5015243;28;20710;-60
2021/11/19 05:16:25;;;;;;;67.50;15.13;;;0.70;99.90;;;;;;5021757;28;20430;-59
2021/11/19 05:18:51;;;;;;;125.50;17.67;;;0.70;99.90;;;;;;5007574;28;20483;-60
2021/11/19 05:21:19;;;;;;;94.77;16.50;;;0.70;99.90;;;;;;5002209;28;20456;-60
2021/11/19 05:23:46;;;;;;;93.93;14.97;;;0.70;99.90;;;;;;5002850;28;20588;-59
2021/11/19 05:26:12;;;;;;;123.67;16.10;;;0.70;99.90;;;;;;5009580;28;20518;-59
2021/11/19 05:28:39;;;;;;;111.57;17.93;;;0.70;99.90;;;;;;5005250;28;20508;-60
2021/11/19 05:31:06;;;;;;;41.97;13.50;;;0.70;99.90;;;;;;5005512;28;20433;-59
2021/11/19 05:33:34;;;;;;;49.97;14.17;;;0.70;99.90;;;;;;5003806;28;20466;-60
2021/11/19 05:36:00;;;;;;;62.03;15.07;;;0.70;99.90;;;;;;5003217;28;20530;-60
2021/11/19 05:38:27;;;;;;;56.10;13.10;;;0.70;99.90;;;;;;5004889;28;21007;-59
2021/11/19 05:40:53;;;;;;;45.23;13.60;;;0.70;99.90;;;;;;5007914;28;20848;-58
2021/11/19 05:43:19;;;;;;;55.93;16.13;;;0.70;99.90;;;;;;5008055;28;20462;-58
2021/11/19 05:45:45;;;;;;;79.77;13.50;;;0.70;99.90;;;;;;5004747;28;20438;-60
2021/11/19 05:48:11;;;;;;;97.40;14.40;;;0.70;99.90;;;;;;5008116;28;20551;-59
2021/11/19 05:50:40;;;;;;;95.43;13.83;;;0.60;99.90;;;;;;5005286;28;20170;-60
2021/11/19 05:53:07;;;;;;;43.03;12.30;;;0.60;99.90;;;;;;5004935;28;20233;-60
2021/11/19 05:55:36;;;;;;;63.77;12.70;;;0.60;99.90;;;;;;5007764;28;20456;-59
2021/11/19 05:58:02;;;;;;;114.23;15.03;;;0.60;99.90;;;;;;5001079;28;20491;-61
2021/11/19 06:00:39;;;;;;;95.67;12.63;;;0.50;99.90;;;;;;4999406;28;20584;-60
2021/11/19 06:03:05;;;;;;;80.67;12.77;;;0.50;99.90;;;;;;5002260;28;20476;-58
2021/11/19 06:05:31;;;;;;;84.33;12.80;;;0.40;99.90;;;;;;5004321;28;20433;-58
2021/11/19 06:07:57;;;;;;;48.80;11.87;;;0.50;99.90;;;;;;5010525;28;20182;-59
2021/11/19 06:10:25;;;;;;;33.47;10.20;;;0.40;99.90;;;;;;5015821;28;20421;-58
2021/11/19 06:12:54;;;;;;;27.13;10.80;;;0.40;99.90;;;;;;5029167;28;20436;-58
2021/11/19 06:15:30;;;;;;;43.33;9.97;;;0.40;99.90;;;;;;5007939;28;20402;-58
2021/11/19 06:18:02;;;;;;;90.47;11.30;;;0.40;99.90;;;;;;5006822;28;20433;-60
2021/11/19 06:20:44;;;;;;;26.60;9.20;;;0.40;99.90;;;;;;5010359;28;20417;-60
2021/11/19 06:23:14;;;;;;;35.50;9.60;;;0.30;99.90;;;;;;5011525;28;20484;-60
2021/11/19 06:25:41;;;;;;;161.20;14.87;;;0.30;99.90;;;;;;5009594;28;20429;-60
2021/11/19 06:28:10;;;;;;;84.87;12.10;;;0.30;99.90;;;;;;5023484;28;20799;-59
2021/11/19 06:30:36;;;;;;;34.83;11.07;;;0.30;99.90;;;;;;5026738;28;20927;-58
2021/11/19 06:33:02;;;;;;;33.57;11.77;;;0.30;99.90;;;;;;4998039;28;21006;-60
2021/11/19 06:35:29;;;;;;;26.00;12.40;;;0.30;99.90;;;;;;5007714;28;20171;-60
2021/11/19 06:37:55;;;;;;;29.57;10.13;;;0.30;99.90;;;;;;5008879;28;20424;-60
2021/11/19 06:40:27;;;;;;;33.00;9.90;;;0.30;99.90;;;;;;5005009;28;20430;-59
2021/11/19 06:42:54;;;;;;;75.77;12.13;;;0.30;99.90;;;;;;5006838;28;21450;-60
2021/11/19 06:45:20;;;;;;;87.50;12.90;;;0.30;99.90;;;;;;5028574;28;20421;-60
2021/11/19 06:47:46;;;;;;;70.13;11.37;;;0.30;99.90;;;;;;5021659;28;20429;-60
2021/11/19 06:50:15;;;;;;;48.10;10.40;;;0.20;99.90;;;;;;5007240;28;20973;-59
2021/11/19 06:52:41;;;;;;;99.77;11.57;;;0.20;99.90;;;;;;5023290;28;20801;-60
2021/11/19 06:55:10;;;;;;;75.30;10.40;;;0.20;99.90;;;;;;5027486;28;20975;-60
2021/11/19 06:57:36;;;;;;;62.57;9.67;;;0.20;99.90;;;;;;5008453;28;20487;-61
2021/11/19 07:00:06;;;;;;;33.63;8.37;;;0.20;99.90;;;;;;5003165;28;20438;-60
2021/11/19 07:02:31;;;;;;;67.37;9.13;;;0.20;99.90;;;;;;5012834;28;20471;-60
2021/11/19 07:04:57;;;;;;;21.50;7.80;;;0.20;99.90;;;;;;5029810;28;20393;-60
2021/11/19 07:07:23;;;;;;;22.63;7.70;;;0.20;99.90;;;;;;5025791;28;20169;-60
2021/11/19 07:09:50;;;;;;;17.00;8.17;;;0.20;99.90;;;;;;4990132;28;20194;-61
2021/11/19 07:12:16;;;;;;;15.97;7.83;;;0.30;99.90;;;;;;4997441;28;20560;-61
2021/11/19 07:14:43;;;;;;;15.23;7.10;;;0.30;99.90;;;;;;5025081;28;20737;-60
2021/11/19 07:17:09;;;;;;;13.17;6.97;;;0.40;99.90;;;;;;4990983;28;20221;-61
2021/11/19 07:19:36;;;;;;;70.37;14.30;;;0.30;99.90;;;;;;5035207;28;20847;-60
2021/11/19 07:22:03;;;;;;;40.93;13.30;;;0.30;99.90;;;;;;5035742;28;20408;-59
2021/11/19 07:24:28;;;;;;;41.90;14.67;;;0.30;99.90;;;;;;5034846;28;20479;-61
2021/11/19 07:26:54;;;;;;;42.03;14.17;;;0.30;99.90;;;;;;5005476;28;20457;-61
2021/11/19 07:29:20;;;;;;;38.50;12.57;;;0.30;99.90;;;;;;5016077;28;20591;-60
2021/11/19 07:31:46;;;;;;;37.37;13.03;;;0.30;99.90;;;;;;5014679;28;20249;-61
2021/11/19 07:34:12;;;;;;;33.73;12.20;;;0.30;99.90;;;;;;5010537;28;20917;-60
2021/11/19 07:36:38;;;;;;;65.37;17.37;;;0.30;99.90;;;;;;4996850;28;20165;-60
2021/11/19 07:39:06;;;;;;;60.37;18.47;;;0.30;99.90;;;;;;5007139;28;20786;-58
2021/11/19 07:41:32;;;;;;;45.77;15.60;;;0.30;99.90;;;;;;5016278;28;20217;-59
2021/11/19 07:43:58;;;;;;;53.17;14.47;;;0.30;99.90;;;;;;5022712;28;20818;-59
2021/11/19 07:46:25;;;;;;;52.30;15.53;;;0.30;99.90;;;;;;5036359;28;20400;-61
2021/11/19 07:48:52;;;;;;;53.10;14.77;;;0.30;99.90;;;;;;5019619;28;20166;-60
2021/11/19 07:51:22;;;;;;;49.50;13.60;;;0.30;99.90;;;;;;5009930;28;20512;-60
2021/11/19 07:53:48;;;;;;;36.07;13.33;;;0.30;99.90;;;;;;5031760;28;20462;-60
2021/11/19 07:56:16;;;;;;;36.53;12.80;;;0.30;99.90;;;;;;5035466;28;20409;-61
2021/11/19 07:58:42;;;;;;;43.03;13.43;;;0.30;99.90;;;;;;5036172;28;20452;-59
2021/11/19 08:01:08;;;;;;;40.70;13.83;;;0.40;99.90;;;;;;4999456;28;20430;-59
2021/11/19 08:03:35;;;;;;;40.47;11.57;;;0.40;99.90;;;;;;5003128;28;20464;-60
2021/11/19 08:06:03;;;;;;;30.23;10.47;;;0.50;99.90;;;;;;5012798;28;20517;-59
2021/11/19 08:08:32;;;;;;;26.80;9.40;;;0.50;99.90;;;;;;5008793;28;21006;-61
2021/11/19 08:10:59;;;;;;;18.83;9.10;;;0.50;99.90;;;;;;5013560;28;20418;-61
2021/11/19 08:13:25;;;;;;;25.67;8.90;;;0.50;99.90;;;;;;5016147;28;20535;-61
2021/11/19 08:15:50;;;;;;;19.87;9.47;;;0.50;99.90;;;;;;5010484;28;20442;-59
2021/11/19 08:18:23;;;;;;;21.30;7.77;;;0.60;99.90;;;;;;5025880;28;20472;-60
2021/11/19 08:20:51;;;;;;;20.73;7.70;;;0.60;99.90;;;;;;5035593;28;20197;-61
2021/11/19 08:23:23;;;;;;;19.20;7.70;;;0.70;99.90;;;;;;5020092;28;20465;-61
2021/11/19 08:25:49;;;;;;;29.77;8.80;;;0.70;99.90;;;;;;5001280;28;21028;-61
2021/11/19 08:28:16;;;;;;;26.37;8.93;;;0.80;99.90;;;;;;4996199;28;20418;-61
2021/11/19 08:30:49;;;;;;;23.67;8.80;;;0.90;99.90;;;;;;4991620;28;20477;-60
2021/11/19 08:33:16;;;;;;;35.97;10.50;;;0.90;99.90;;;;;;5010105;28;20437;-61
2021/11/19 08:35:42;;;;;;;35.57;11.37;;;1.00;99.90;;;;;;5013580;28;20426;-60
2021/11/19 08:38:11;;;;;;;58.13;13.67;;;1.00;99.90;;;;;;5012593;28;20409;-60
2021/11/19 08:40:43;;;;;;;59.20;13.93;;;1.10;99.90;;;;;;5004348;28;20410;-61
2021/11/19 08:43:09;;;;;;;54.63;14.67;;;1.10;99.90;;;;;;5000240;28;20458;-60
2021/11/19 08:45:35;;;;;;;60.87;14.90;;;1.20;99.90;;;;;;5004378;28;20496;-60
2021/11/19 08:48:01;;;;;;;41.30;13.70;;;1.20;99.90;;;;;;5010310;28;20417;-61
2021/11/19 08:50:31;;;;;;;65.07;14.60;;;1.30;99.90;;;;;;5013696;28;20191;-61
2021/11/19 08:53:00;;;;;;;61.73;17.40;;;1.30;99.90;;;;;;5008985;28;21005;-61
2021/11/19 08:55:26;;;;;;;51.27;15.50;;;1.30;99.90;;;;;;5011662;28;20414;-59
2021/11/19 08:57:53;;;;;;;35.63;12.63;;;1.40;99.90;;;;;;5010372;28;20421;-60
2021/11/19 09:00:26;;;;;;;43.20;11.50;;;1.50;99.90;;;;;;5011911;28;20792;-60
2021/11/19 09:02:56;;;;;;;25.00;10.70;;;1.60;99.90;;;;;;5023879;23;20502;-56
2021/11/19 09:05:25;;;;;;;23.10;9.40;;;1.70;99.90;;;;;;5009569;28;20928;-59
2021/11/19 09:07:51;;;;;;;26.43;11.57;;;1.80;99.90;;;;;;5010576;28;20889;-57
2021/11/19 09:10:18;;;;;;;35.40;13.57;;;1.90;99.90;;;;;;5010796;28;20782;-56
2021/11/19 09:12:44;;;;;;;31.30;11.90;;;1.90;99.90;;;;;;5005820;28;20529;-55
2021/11/19 09:15:14;;;;;;;33.00;12.63;;;2.10;99.90;;;;;;4999310;28;20464;-58
2021/11/19 09:17:50;;;;;;;39.13;13.70;;;2.20;99.90;;;;;;5002158;28;20933;-56
2021/11/19 09:20:37;;;;;;;33.03;14.90;;;2.30;99.90;;;;;;5008006;28;21020;-57
2021/11/19 09:23:28;;;;;;;33.87;13.70;;;2.40;99.90;;;;;;5010120;28;20455;-59
2021/11/19 09:25:56;;;;;;;42.17;11.97;;;2.50;99.90;;;;;;5010818;28;20408;-58
2021/11/19 09:28:25;;;;;;;25.20;11.00;;;2.60;99.90;;;;;;5025248;28;20431;-57
2021/11/19 09:30:54;;;;;;;23.67;11.23;;;2.80;99.90;;;;;;5009653;28;20403;-58
2021/11/19 09:33:22;;;;;;;27.83;9.73;;;2.80;99.90;;;;;;5008388;28;20415;-56
2021/11/19 09:35:49;;;;;;;22.20;9.93;;;2.90;99.90;;;;;;4990217;28;20420;-57
2021/11/19 09:38:17;;;;;;;15.67;8.40;;;3.00;99.90;;;;;;4990425;28;20535;-57
2021/11/19 09:41:21;;;;;;;25.33;9.70;;;3.10;99.90;;;;;;5000051;28;20414;-55
2021/11/19 09:44:17;;;;;;;34.00;11.13;;;3.20;99.90;;;;;;4990608;28;20451;-58
2021/11/19 09:47:20;;;;;;;43.43;13.47;;;3.30;99.90;;;;;;5010604;28;20489;-60
2021/11/19 09:50:19;;;;;;;34.60;11.77;;;3.50;99.90;;;;;;5027826;28;20456;-58
2021/11/19 09:53:15;;;;;;;27.60;10.20;;;3.60;99.90;;;;;;4989989;28;20404;-58
2021/11/19 09:56:18;;;;;;;14.40;7.03;;;3.80;99.90;;;;;;4995502;28;20433;-57
2021/11/19 09:59:27;;;;;;;14.40;7.80;;;4.00;99.90;;;;;;4999356;28;20424;-58
2021/11/19 10:02:21;;;;;;;14.70;6.73;;;4.10;99.90;;;;;;5013610;28;20478;-59
2021/11/19 10:05:12;;;;;;;13.40;6.63;;;4.30;99.90;;;;;;4989624;28;21009;-58
2021/11/19 10:07:52;;;;;;;9.83;6.13;;;4.50;99.90;;;;;;5009170;28;20446;-58
2021/11/19 10:10:47;;;;;;;13.30;5.80;;;4.60;99.90;;;;;;5007000;28;20450;-56
2021/11/19 10:13:28;;;;;;;17.60;5.93;;;4.80;99.90;;;;;;4989516;28;20474;-57
2021/11/19 10:16:03;;;;;;;10.93;6.73;;;5.00;99.90;;;;;;4989721;28;20428;-56
2021/11/19 10:18:37;;;;;;;17.87;7.17;;;5.10;99.90;;;;;;4992244;28;20450;-58
2021/11/19 10:21:09;;;;;;;14.67;6.10;;;5.20;99.90;;;;;;5006308;28;20427;-58
2021/11/19 10:23:51;;;;;;;9.70;6.27;;;5.40;99.90;;;;;;5015003;28;20471;-59
2021/11/19 10:26:30;;;;;;;11.33;6.83;;;5.60;99.90;;;;;;5018028;28;20427;-58
2021/11/19 10:29:37;;;;;;;12.40;6.97;;;5.90;99.90;;;;;;5010384;28;20911;-59
2021/11/19 10:32:04;;;;;;;16.53;7.80;;;6.00;99.90;;;;;;5007644;28;20449;-58
2021/11/19 10:34:43;;;;;;;24.50;9.63;;;6.20;99.90;;;;;;5007349;28;20448;-56
2021/11/19 10:37:22;;;;;;;28.73;11.10;;;6.40;99.90;;;;;;4987926;28;20441;-55
2021/11/19 10:40:25;;;;;;;31.30;13.23;;;6.50;99.90;;;;;;4999352;28;20729;-56
2021/11/19 10:43:38;;;;;;;37.13;14.80;;;6.70;99.90;;;;;;5003696;28;20549;-56
2021/11/19 10:46:25;;;;;;;43.10;14.80;;;6.90;99.90;;;;;;4992251;28;20424;-55
2021/11/19 10:49:18;;;;;;;36.23;14.07;;;7.00;99.90;;;;;;5007763;28;20412;-56
2021/11/19 10:52:02;;;;;;;30.50;14.30;;;7.10;99.90;;;;;;5006174;28;20454;-56
2021/11/19 10:54:46;;;;;;;49.53;15.77;;;7.10;99.90;;;;;;5005398;28;20505;-56
2021/11/19 10:57:16;;;;;;;33.63;14.20;;;7.20;99.90;;;;;;4999650;28;20419;-56
2021/11/19 11:00:05;;;;;;;40.67;15.40;;;7.30;99.90;;;;;;5005970;28;20857;-56
2021/11/19 11:02:47;;;;;;;41.20;14.43;;;7.40;99.90;;;;;;5004664;28;20593;-57
2021/11/19 11:05:24;;;;;;;41.03;14.07;;;7.60;99.90;;;;;;5007143;28;20428;-56
2021/11/19 11:08:19;;;;;;;37.63;16.00;;;7.70;99.90;;;;;;4988364;28;20412;-57
2021/11/19 11:10:56;;;;;;;27.23;13.10;;;7.90;99.90;;;;;;4999576;28;20415;-57
2021/11/19 11:13:24;;;;;;;31.63;13.90;;;8.10;99.90;;;;;;5005517;28;20454;-56
2021/11/19 11:15:55;;;;;;;30.17;12.87;;;8.20;99.40;;;;;;4997961;28;20480;-58
2021/11/19 11:18:25;;;;;;;27.00;10.37;;;8.40;98.90;;;;;;5011467;28;20418;-58
2021/11/19 11:20:55;;;;;;;23.07;10.33;;;8.60;99.20;;;;;;5003151;28;20847;-56
2021/11/19 11:23:45;;;;;;;26.17;9.90;;;8.90;97.40;;;;;;5004604;28;20519;-55
2021/11/19 11:26:18;;;;;;;20.77;7.50;;;9.10;96.90;;;;;;4999578;28;20505;-57
2021/11/19 11:28:54;;;;;;;15.10;5.93;;;9.40;96.30;;;;;;5004441;28;20427;-57
2021/11/19 11:31:34;;;;;;;11.33;5.90;;;9.60;95.50;;;;;;5006362;28;20431;-56
2021/11/19 11:34:21;;;;;;;11.67;6.70;;;9.80;94.70;;;;;;4998459;28;20469;-57
2021/11/19 11:37:16;;;;;;;10.10;5.80;;;9.90;94.60;;;;;;5007333;28;20497;-58
2021/11/19 11:39:52;;;;;;;8.33;6.00;;;10.10;93.20;;;;;;4988268;28;20820;-60
2021/11/19 11:42:21;;;;;;;16.80;6.60;;;10.20;92.50;;;;;;4992792;28;20477;-56
2021/11/19 11:44:49;;;;;;;10.90;6.17;;;10.40;92.10;;;;;;5001299;28;20521;-58
2021/11/19 11:47:29;;;;;;;12.80;6.80;;;10.50;89.50;;;;;;5002720;28;20497;-58
2021/11/19 11:49:59;;;;;;;18.63;7.23;;;10.60;86.10;;;;;;5002651;28;20450;-57
2021/11/19 11:52:47;;;;;;;20.37;6.90;;;10.60;86.80;;;;;;4997543;28;20423;-57
2021/11/19 11:55:33;;;;;;;13.13;4.87;;;10.50;87.40;;;;;;4999418;28;20447;-58
2021/11/19 11:58:02;;;;;;;7.63;4.70;;;10.20;87.90;;;;;;5015128;28;20710;-56
2021/11/19 12:00:54;;;;;;;8.57;4.63;;;10.10;89.70;;;;;;5003685;28;20447;-57
2021/11/19 12:03:28;;;;;;;7.67;4.63;;;10.00;90.40;;;;;;4995814;28;20913;-56
2021/11/19 12:06:31;;;;;;;8.70;4.53;;;9.90;91.60;;;;;;5007848;28;20808;-58
2021/11/19 12:09:21;;;;;;;12.60;4.90;;;9.80;92.70;;;;;;5005839;28;20423;-58
2021/11/19 12:11:50;;;;;;;8.80;4.90;;;9.60;94.20;;;;;;5009058;28;20683;-57
2021/11/19 12:14:19;;;;;;;8.37;4.83;;;9.50;94.70;;;;;;4994742;28;20452;-58
2021/11/19 12:17:17;;;;;;;10.40;4.97;;;9.40;95.00;;;;;;4993132;28;20441;-57
2021/11/19 12:19:54;;;;;;;13.43;5.43;;;9.40;95.00;;;;;;5013586;28;20517;-56
2021/11/19 12:22:40;;;;;;;19.30;5.90;;;9.40;95.50;;;;;;5003948;28;20554;-60
2021/11/19 12:25:31;;;;;;;9.83;5.70;;;9.40;96.00;;;;;;4996140;28;20506;-57
2021/11/19 12:28:20;;;;;;;17.10;6.90;;;9.40;96.30;;;;;;4991004;28;20427;-57
2021/11/19 12:30:57;;;;;;;13.20;6.27;;;9.50;96.30;;;;;;5016942;28;20864;-55
2021/11/19 12:33:23;;;;;;;19.53;5.87;;;9.60;96.10;;;;;;5010354;28;20531;-56
2021/11/19 12:36:25;;;;;;;13.27;6.20;;;9.60;95.90;;;;;;5010374;28;20502;-57
2021/11/19 12:38:58;;;;;;;15.60;6.73;;;9.60;95.50;;;;;;5009698;28;20192;-57
2021/11/19 12:41:44;;;;;;;14.10;6.40;;;9.60;95.30;;;;;;4999153;28;20518;-57
2021/11/19 12:44:28;;;;;;;8.60;4.90;;;9.60;95.00;;;;;;4996972;28;20466;-57
2021/11/19 12:47:20;;;;;;;10.00;4.50;;;9.60;94.30;;;;;;5008968;28;20843;-55
2021/11/19 12:50:16;;;;;;;8.97;4.90;;;9.60;92.70;;;;;;5005138;28;20432;-58
2021/11/19 12:53:09;;;;;;;16.10;4.90;;;9.60;92.30;;;;;;5008092;28;20422;-57
2021/11/19 12:55:43;;;;;;;9.73;4.60;;;9.60;92.40;;;;;;5008397;28;20416;-57
2021/11/19 12:58:29;;;;;;;7.77;4.63;;;9.60;90.20;;;;;;5001623;28;20974;-56
2021/11/19 13:01:27;;;;;;;7.13;4.30;;;9.70;90.20;;;;;;5001430;28;20902;-57
2021/11/19 13:04:50;;;;;;;10.70;5.00;;;9.70;89.30;;;;;;5002729;28;20559;-55
2021/11/19 13:07:51;;;;;;;8.90;4.50;;;9.80;90.00;;;;;;4942957;28;20525;-57